Flight Track Log - Related Links

Times and Time Zones

All times are in EDT time to prevent confusion due to time zone crossing. See the AAL1459 flight status page for this flight to view local times or setup timezone preferences in your user account.

Time Position Orientation Groundspeed Altitude Reporting Facility
EDT Latitude Longitude Course Direction KTS MPH feet Rate Location/Type
Wed 06:17:18 PM 41.9960 -87.9400 319° Northwest 178 205 1,500  Level FlightAware ADS-B
Wed 06:17:43 PM 42.0150 -87.9570 326° Northwest 193 222 2,400 1,636 Climbing FlightAware ADS-B
Wed 06:18:13 PM 42.0390 -87.9780 327° Northwest 236 272 3,000 1,900 Climbing FlightAware ADS-B
Wed 06:18:43 PM 42.0700 -88.0020 330° Northwest 260 299 4,300 2,533 Climbing FlightAware ADS-B
Wed 06:18:58 PM 42.0840 -88.0130 330° Northwest 263 303 4,900 1,350 Climbing FlightAware ADS-B
Wed 06:19:23 PM 42.1100 -88.0350 328° Northwest 261 300 5,200 1,050 Climbing FlightAware ADS-B
Wed 06:19:38 PM 42.1250 -88.0520 320° Northwest 264 304 5,600 2,000 Climbing FlightAware ADS-B
Wed 06:19:53 PM 42.1340 -88.0690 306° West 264 304 6,200 2,880 Climbing FlightAware ADS-B
Wed 06:20:03 PM 42.1390 -88.0820 297° West 261 300 6,800 3,300 Climbing FlightAware ADS-B
Wed 06:20:33 PM 42.1490 -88.1270 287° West 263 303 8,400 3,382 Climbing FlightAware ADS-B
Wed 06:20:58 PM 42.1480 -88.1730 268° West 262 302 9,900 3,257 Climbing FlightAware ADS-B
Wed 06:21:43 PM 42.1470 -88.2440 269° West 258 297 12,200 2,329 Climbing FlightAware ADS-B
Wed 06:22:23 PM 42.1460 -88.3160 269° West 300 345 13,200 1,694 Climbing FlightAware ADS-B
Wed 06:23:08 PM 42.1420 -88.4080 267° West 327 376 14,600 2,118 Climbing FlightAware ADS-B
Wed 06:23:48 PM 42.1370 -88.4890 265° West 335 386 16,200 2,259 Climbing FlightAware ADS-B
Wed 06:24:33 PM 42.1300 -88.5810 264° West 347 399 17,800 2,118 Climbing FlightAware ADS-B
Wed 06:25:13 PM 42.1240 -88.6690 265° West 357 411 19,200 2,025 Climbing FlightAware ADS-B
Wed 06:25:53 PM 42.1190 -88.7610 266° West 367 422 20,500 1,906 Climbing FlightAware ADS-B
Wed 06:26:38 PM 42.1130 -88.8650 266° West 375 432 21,900 1,765 Climbing FlightAware ADS-B
Wed 06:27:18 PM 42.1080 -88.9590 266° West 384 442 23,000 1,624 Climbing FlightAware ADS-B
Wed 06:28:03 PM 42.1040 -89.0670 267° West 393 452 24,200 2,047 Climbing FlightAware ADS-B
Wed 06:28:43 PM 42.1000 -89.1640 267° West 382 440 25,900 2,175 Climbing FlightAware ADS-B
Wed 06:29:23 PM 42.0950 -89.2540 266° West 380 437 27,100 1,694 Climbing FlightAware ADS-B
Wed 06:30:08 PM 42.0900 -89.3620 266° West 384 442 28,300 1,482 Climbing FlightAware ADS-B
Wed 06:30:48 PM 42.0860 -89.4540 267° West 386 444 29,200 1,271 Climbing FlightAware ADS-B
Wed 06:31:33 PM 42.0970 -89.5610 278° West 389 448 30,100 1,200 Climbing FlightAware ADS-B
Wed 06:32:13 PM 42.1070 -89.6640 277° West 395 455 30,900 1,050 Climbing FlightAware ADS-B
Wed 06:32:53 PM 42.1180 -89.7580 279° West 400 460 31,500 918 Climbing FlightAware ADS-B
Wed 06:33:38 PM 42.1310 -89.8750 279° West 409 471 32,200 988 Climbing FlightAware ADS-B
Wed 06:34:18 PM 42.1360 -89.9750 274° West 407 468 32,900 1,050 Climbing FlightAware ADS-B
Wed 06:34:58 PM 42.1410 -90.0790 274° West 409 471 33,600 1,029 Climbing FlightAware ADS-B
Wed 06:35:28 PM 42.1450 -90.1560 274° West 410 472 34,100 960 Climbing FlightAware ADS-B
Wed 06:36:13 PM 42.1510 -90.2670 274° West 411 473 34,800 988 Climbing FlightAware ADS-B
Wed 06:36:53 PM 42.1570 -90.3710 274° West 409 471 35,500 847 Climbing FlightAware ADS-B
Wed 06:37:38 PM 42.1630 -90.4800 274° West 408 470 36,000 353 Climbing FlightAware ADS-B
Wed 06:38:18 PM 42.1680 -90.5850 274° West 408 470 36,000  Level FlightAware ADS-B
Wed 06:38:58 PM 42.1730 -90.6830 274° West 407 468 36,000  Level FlightAware ADS-B
Wed 06:39:43 PM 42.1790 -90.8000 274° West 405 466 36,000  Level FlightAware ADS-B
Wed 06:40:23 PM 42.1830 -90.9000 273° West 404 465 36,000  Level FlightAware ADS-B
Wed 06:41:03 PM 42.1880 -91.0040 274° West 403 464 36,000  Level FlightAware ADS-B
Wed 06:41:48 PM 42.1930 -91.1110 274° West 404 465 36,000  Level FlightAware ADS-B
Wed 06:42:28 PM 42.1980 -91.2120 274° West 407 468 36,000  Level FlightAware ADS-B
Wed 06:43:13 PM 42.2030 -91.3290 273° West 407 468 36,000  Level FlightAware ADS-B
Wed 06:43:53 PM 42.2070 -91.4290 273° West 407 468 36,000  Level FlightAware ADS-B
Wed 06:44:38 PM 42.2120 -91.5420 273° West 407 468 36,000  Level FlightAware ADS-B
Wed 06:45:18 PM 42.2160 -91.6420 273° West 408 470 36,000  Level FlightAware ADS-B
Wed 06:45:58 PM 42.2210 -91.7460 274° West 410 472 36,000  Level FlightAware ADS-B
Wed 06:46:43 PM 42.2250 -91.8620 273° West 411 473 36,000  Level FlightAware ADS-B
Wed 06:47:23 PM 42.2290 -91.9640 273° West 410 472 36,000  Level FlightAware ADS-B
Wed 06:48:08 PM 42.2330 -92.0760 273° West 409 471 36,000  Level FlightAware ADS-B
Wed 06:48:48 PM 42.2370 -92.1740 273° West 409 471 36,000  Level FlightAware ADS-B
Wed 06:49:28 PM 42.2410 -92.2740 273° West 409 471 36,000  Level FlightAware ADS-B
Wed 06:50:13 PM 42.2450 -92.3990 273° West 410 472 36,000  Level FlightAware ADS-B
Wed 06:50:53 PM 42.2480 -92.5000 272° West 409 471 36,000  Level FlightAware ADS-B
Wed 06:51:38 PM 42.2520 -92.6120 273° West 408 470 36,000  Level FlightAware ADS-B
Wed 06:52:18 PM 42.2550 -92.7120 272° West 408 470 36,000  Level FlightAware ADS-B
Wed 06:52:58 PM 42.2590 -92.8170 273° West 408 470 36,000  Level FlightAware ADS-B
Wed 06:53:43 PM 42.2620 -92.9320 272° West 408 470 36,000  Level FlightAware ADS-B
Wed 06:54:23 PM 42.2650 -93.0280 272° West 409 471 36,000  Level FlightAware ADS-B
Wed 06:55:03 PM 42.2680 -93.1310 272° West 409 471 36,000  Level FlightAware ADS-B
Wed 06:55:48 PM 42.2710 -93.2480 272° West 409 471 36,000  Level FlightAware ADS-B
Wed 06:56:28 PM 42.2740 -93.3520 272° West 410 472 36,000  Level FlightAware ADS-B
Wed 06:57:13 PM 42.2760 -93.4630 271° West 409 471 36,000  Level FlightAware ADS-B
Wed 06:57:53 PM 42.2790 -93.5660 272° West 410 472 36,000  Level FlightAware ADS-B
Wed 06:58:38 PM 42.2820 -93.6800 272° West 410 472 36,000  Level FlightAware ADS-B
Wed 06:59:18 PM 42.2850 -93.7850 272° West 410 472 36,000  Level FlightAware ADS-B
Wed 06:59:58 PM 42.2870 -93.8870 272° West 410 472 36,000  Level FlightAware ADS-B
Wed 07:00:43 PM 42.2890 -93.9990 271° West 411 473 36,000  Level FlightAware ADS-B
Wed 07:01:23 PM 42.2900 -94.1000 271° West 413 475 36,000  Level FlightAware ADS-B
Wed 07:02:08 PM 42.2930 -94.2190 272° West 414 476 36,000  Level FlightAware ADS-B
Wed 07:02:48 PM 42.2950 -94.3240 272° West 416 479 36,000  Level FlightAware ADS-B
Wed 07:03:28 PM 42.2970 -94.4260 272° West 416 479 36,000  Level FlightAware ADS-B
Wed 07:04:08 PM 42.2990 -94.5300 272° West 415 478 36,000  Level FlightAware ADS-B
Wed 07:04:53 PM 42.3010 -94.6450 271° West 414 476 36,000  Level FlightAware ADS-B
Wed 07:05:33 PM 42.3020 -94.7460 271° West 413 475 36,000  Level FlightAware ADS-B
Wed 07:06:18 PM 42.3040 -94.8660 271° West 413 475 36,000  Level FlightAware ADS-B
Wed 07:06:58 PM 42.3050 -94.9690 271° West 413 475 36,000  Level FlightAware ADS-B
Wed 07:07:43 PM 42.3060 -95.0820 271° West 413 475 36,000  Level FlightAware ADS-B
Wed 07:08:23 PM 42.3070 -95.1850 271° West 412 474 36,000  Level FlightAware ADS-B
Wed 07:09:03 PM 42.3080 -95.2890 271° West 412 474 36,000  Level FlightAware ADS-B
Wed 07:09:48 PM 42.3090 -95.4050 271° West 412 474 36,000  Level FlightAware ADS-B
Wed 07:10:28 PM 42.3100 -95.5030 271° West 412 474 36,000  Level FlightAware ADS-B
Wed 07:11:08 PM 42.3110 -95.6120 271° West 412 474 36,000  Level FlightAware ADS-B
Wed 07:11:53 PM 42.3120 -95.7240 271° West 414 476 36,000  Level FlightAware ADS-B
Wed 07:12:33 PM 42.3120 -95.8260 270° West 415 478 36,000  Level FlightAware ADS-B
Wed 07:13:13 PM 42.3130 -95.9200 271° West 416 479 36,000  Level FlightAware ADS-B
Wed 07:14:13 PM 42.3130 -96.0850 270° West 416 479 36,000  Level FlightAware ADS-B
Wed 07:14:53 PM 42.3130 -96.1880 270° West 417 480 36,000  Level FlightAware ADS-B
Wed 07:16:03 PM 42.3140 -96.3690 270° West 416 479 36,000  Level FlightAware ADS-B
Wed 07:17:03 PM 42.3140 -96.5240 270° West 417 480 36,000  Level FlightAware ADS-B
Wed 07:17:58 PM 42.3120 -96.6600 269° West 416 479 36,000  Level FlightAware ADS-B
Wed 07:18:38 PM 42.3110 -96.7490 269° West 416 479 36,000  Level FlightAware ADS-B
Wed 07:19:18 PM 42.3100 -96.8370 269° West 416 479 36,000  Level FlightAware ADS-B
Wed 07:19:58 PM 42.3090 -96.9260 269° West 416 479 36,000  Level FlightAware ADS-B
Wed 07:20:38 PM 42.3080 -97.0140 269° West 416 479 36,000  Level FlightAware ADS-B
Wed 07:21:28 PM 42.3060 -97.1250 269° West 416 479 36,000  Level FlightAware ADS-B
Wed 07:22:08 PM 42.3050 -97.2130 269° West 416 479 36,000  Level FlightAware ADS-B
Wed 07:22:48 PM 42.3040 -97.3010 269° West 416 479 36,000  Level FlightAware ADS-B
Wed 07:23:28 PM 42.3030 -97.3900 269° West 416 479 36,000  Level FlightAware ADS-B
Wed 07:24:08 PM 42.3020 -97.4780 269° West 416 479 36,000  Level FlightAware ADS-B
Wed 07:24:58 PM 42.3000 -97.5890 269° West 416 479 36,000  Level FlightAware ADS-B
Wed 07:25:38 PM 42.2990 -97.6770 269° West 416 479 36,000  Level FlightAware ADS-B
Wed 07:26:18 PM 42.2980 -97.7660 269° West 416 479 36,000  Level FlightAware ADS-B
Wed 07:26:58 PM 42.2970 -97.8540 269° West 416 479 36,000  Level FlightAware ADS-B
Wed 07:27:16 PM 42.3011 -98.1042 269° West 412 474 36,000  Level Minneapolis Center
Wed 07:28:18 PM 42.2986 -98.2608 269° West 415 478 36,000  Level Minneapolis Center
Wed 07:29:20 PM 42.2944 -98.4161 268° West 416 479 36,000  Level Minneapolis Center
Wed 07:30:22 PM 42.2922 -98.5703 269° West 413 475 36,000  Level Minneapolis Center
Wed 07:31:23 PM 42.2897 -98.7267 269° West 416 479 36,000  Level Minneapolis Center
Wed 07:32:25 PM 42.2867 -98.8819 269° West 415 478 36,000  Level Minneapolis Center
Wed 07:33:27 PM 42.2839 -99.0350 269° West 411 473 36,000  Level Minneapolis Center
Wed 07:34:28 PM 42.2786 -99.2206 268° West 413 475 36,000  Level Minneapolis Center
Wed 07:35:30 PM 42.2742 -99.3750 268° West 413 475 36,000  Level Minneapolis Center
Wed 07:36:06 PM 42.2714 -99.4678 268° West 414 476 36,000 495 Level Denver Center
Wed 07:37:07 PM 42.2678 -99.6219 268° West 413 475 36,800 829 Climbing Denver Center
Wed 07:38:09 PM 42.2622 -99.7892 267° West 412 474 37,700 581 Climbing Denver Center
Wed 07:39:11 PM 42.2583 -99.9364 268° West 411 473 38,000 145 Climbing Denver Center
Wed 07:40:13 PM 42.2528 -100.1058 268° West 407 468 38,000  Level Denver Center
Wed 07:41:15 PM 42.2475 -100.2533 267° West 409 471 38,000  Level Denver Center
Wed 07:42:17 PM 42.2433 -100.3983 268° West 407 468 38,000  Level Denver Center
Wed 07:43:19 PM 42.2364 -100.5672 267° West 404 465 38,000  Level Denver Center
Wed 07:44:21 PM 42.2319 -100.7131 268° West 407 468 38,000  Level Denver Center
Wed 07:49:49 PM 42.1962 -101.5640 268° West 405 466 38,000  Level FlightAware ADS-B
Wed 07:50:27 PM 42.1918 -101.6610 267° West 405 466 38,000  Level FlightAware ADS-B
Wed 07:51:25 PM 42.1849 -101.8050 266° West 404 465 38,000  Level FlightAware ADS-B
Wed 07:51:59 PM 42.1809 -101.8910 266° West 403 464 38,000  Level FlightAware ADS-B
Wed 07:52:30 PM 42.1772 -101.9680 266° West 402 463 38,000  Level FlightAware ADS-B
Wed 07:53:02 PM 42.1734 -102.0480 266° West 401 461 38,000  Level FlightAware ADS-B
Wed 07:53:32 PM 42.1696 -102.1230 266° West 400 460 38,000  Level FlightAware ADS-B
Wed 07:54:03 PM 42.1658 -102.1980 266° West 400 460 38,000  Level FlightAware ADS-B
Wed 07:54:35 PM 42.1616 -102.2780 266° West 400 460 38,000  Level FlightAware ADS-B
Wed 07:55:06 PM 42.1577 -102.3540 266° West 399 459 38,000  Level FlightAware ADS-B
Wed 07:55:38 PM 42.1535 -102.4340 266° West 400 460 38,000  Level FlightAware ADS-B
Wed 07:56:09 PM 42.1493 -102.5120 266° West 399 459 38,000  Level FlightAware ADS-B
Wed 07:56:41 PM 42.1451 -102.5900 266° West 398 458 38,000  Level FlightAware ADS-B
Wed 07:57:11 PM 42.1410 -102.6650 266° West 398 458 38,000  Level FlightAware ADS-B
Wed 07:57:42 PM 42.1369 -102.7410 266° West 398 458 38,000  Level FlightAware ADS-B
Wed 07:58:14 PM 42.1325 -102.8200 266° West 397 457 38,000  Level FlightAware ADS-B
Wed 07:58:45 PM 42.1283 -102.8950 266° West 397 457 38,000  Level FlightAware ADS-B
Wed 07:59:15 PM 42.1240 -102.9700 266° West 396 456 38,000  Level FlightAware ADS-B
Wed 07:59:46 PM 42.1195 -103.0450 265° West 396 456 38,000  Level FlightAware ADS-B
Wed 08:00:17 PM 42.1151 -103.1200 266° West 395 455 38,000  Level FlightAware ADS-B
Wed 08:00:47 PM 42.1107 -103.1950 266° West 395 455 38,000  Level FlightAware ADS-B
Wed 08:01:18 PM 42.1063 -103.2700 266° West 393 452 38,000  Level FlightAware ADS-B
Wed 08:01:50 PM 42.1015 -103.3480 265° West 393 452 38,000  Level FlightAware ADS-B
Wed 08:02:25 PM 42.0964 -103.4320 265° West 392 451 38,000  Level FlightAware ADS-B
Wed 08:03:02 PM 42.0909 -103.5220 265° West 390 449 38,000  Level FlightAware ADS-B
Wed 08:03:38 PM 42.0854 -103.6080 265° West 391 450 38,000  Level FlightAware ADS-B
Wed 08:04:08 PM 42.0807 -103.6820 265° West 391 450 38,000  Level FlightAware ADS-B
Wed 08:04:38 PM 42.0759 -103.7560 265° West 391 450 38,000  Level FlightAware ADS-B
Wed 08:05:09 PM 42.0713 -103.8290 265° West 391 450 38,000  Level FlightAware ADS-B
Wed 08:05:39 PM 42.0666 -103.9020 265° West 391 450 38,000  Level FlightAware ADS-B
Wed 08:06:09 PM 42.0618 -103.9750 265° West 394 453 38,000  Level FlightAware ADS-B
Wed 08:06:40 PM 42.0567 -104.0500 265° West 394 453 38,000  Level FlightAware ADS-B
Wed 08:07:10 PM 42.0516 -104.1240 265° West 395 455 38,000  Level FlightAware ADS-B
Wed 08:07:40 PM 42.0466 -104.1970 265° West 396 456 38,000  Level FlightAware ADS-B
Wed 08:08:11 PM 42.0415 -104.2710 265° West 396 456 38,000  Level FlightAware ADS-B
Wed 08:08:41 PM 42.0364 -104.3450 265° West 397 457 38,000  Level FlightAware ADS-B
Wed 08:09:11 PM 42.0313 -104.4190 265° West 398 458 38,000  Level FlightAware ADS-B
Wed 08:09:46 PM 42.0250 -104.5060 264° West 398 458 38,000  Level FlightAware ADS-B
Wed 08:10:19 PM 42.0190 -104.5860 264° West 399 459 38,000  Level FlightAware ADS-B
Wed 08:10:49 PM 42.0138 -104.6600 265° West 400 460 38,000  Level FlightAware ADS-B
Wed 08:11:20 PM 42.0085 -104.7370 265° West 400 460 38,000  Level FlightAware ADS-B
Wed 08:11:50 PM 42.0034 -104.8110 265° West 399 459 38,000  Level FlightAware ADS-B
Wed 08:12:22 PM 41.9976 -104.8900 264° West 399 459 38,000  Level FlightAware ADS-B
Wed 08:12:54 PM 41.9916 -104.9680 264° West 398 458 38,000  Level FlightAware ADS-B
Wed 08:13:25 PM 41.9859 -105.0430 264° West 397 457 38,000  Level FlightAware ADS-B
Wed 08:13:55 PM 41.9802 -105.1160 264° West 396 456 38,000  Level FlightAware ADS-B
Wed 08:14:28 PM 41.9739 -105.1980 264° West 395 455 38,000  Level FlightAware ADS-B
Wed 08:15:23 PM 41.9640 -105.3270 264° West 397 457 38,000  Level FlightAware ADS-B
Wed 08:15:41 PM 41.9599 -105.3750 263° West 397 457 38,000  Level FlightAware ADS-B
Wed 08:16:33 PM 41.9500 -105.4880 263° West 397 457 38,000  Level FlightAware ADS-B
Wed 08:17:13 PM 41.9420 -105.5870 264° West 402 463 38,000  Level FlightAware ADS-B
Wed 08:17:58 PM 41.9530 -105.7120 277° West 412 474 38,000  Level FlightAware ADS-B
Wed 08:18:38 PM 41.9630 -105.8100 278° West 413 475 38,000  Level FlightAware ADS-B
Wed 08:19:23 PM 41.9780 -105.9230 280° West 415 478 38,000  Level FlightAware ADS-B
Wed 08:20:03 PM 41.9950 -106.0250 283° West 413 475 38,000  Level FlightAware ADS-B
Wed 08:20:48 PM 42.0140 -106.1410 282° West 411 473 38,000  Level FlightAware ADS-B
Wed 08:21:18 PM 42.0250 -106.2070 283° West 410 472 38,000  Level FlightAware ADS-B
Wed 08:22:08 PM 42.0460 -106.3380 282° West 409 471 38,000  Level FlightAware ADS-B
Wed 08:22:43 PM 42.0550 -106.4160 279° West 408 470 38,000  Level FlightAware ADS-B
Wed 08:23:43 PM 42.0710 -106.5670 278° West 408 470 38,000  Level FlightAware ADS-B
Wed 08:24:23 PM 42.0800 -106.6530 278° West 408 470 38,000  Level FlightAware ADS-B
Wed 08:25:13 PM 42.0910 -106.7600 278° West 408 470 38,000  Level FlightAware ADS-B
Wed 08:25:53 PM 42.1000 -106.8450 278° West 408 470 38,000  Level FlightAware ADS-B
Wed 08:26:33 PM 42.1090 -106.9310 278° West 408 470 38,000  Level FlightAware ADS-B
Wed 08:27:13 PM 42.1180 -107.0170 278° West 408 470 38,000  Level FlightAware ADS-B
Wed 08:27:53 PM 42.1270 -107.1020 278° West 408 470 38,000  Level FlightAware ADS-B
Wed 08:28:43 PM 42.1380 -107.2090 278° West 408 470 38,000  Level FlightAware ADS-B
Wed 08:29:23 PM 42.1470 -107.2950 278° West 408 470 38,000  Level FlightAware ADS-B
Wed 08:30:03 PM 42.1560 -107.3810 278° West 408 470 38,000  Level FlightAware ADS-B
Wed 08:30:43 PM 42.1650 -107.4670 278° West 408 470 38,000  Level FlightAware ADS-B
Wed 08:31:23 PM 42.1740 -107.5520 278° West 408 470 38,000  Level FlightAware ADS-B
Wed 08:32:13 PM 42.1850 -107.6600 278° West 408 470 38,000  Level FlightAware ADS-B
Wed 08:32:53 PM 42.1940 -107.7450 278° West 408 470 38,000  Level FlightAware ADS-B
Wed 08:33:27 PM 41.9047 -108.0325 278° West 412 474 38,000  Level Denver Center
Wed 08:34:29 PM 41.8839 -108.2025 261° West 415 478 38,000  Level Denver Center
Wed 08:35:31 PM 41.8661 -108.3497 261° West 412 474 38,000  Level Salt Lake Center
Wed 08:36:32 PM 41.8453 -108.5208 261° West 417 480 38,000  Level Salt Lake Center
Wed 08:37:34 PM 41.8267 -108.6669 260° West 418 481 38,000  Level Salt Lake Center
Wed 08:38:36 PM 41.8058 -108.8372 261° West 417 480 38,000  Level Salt Lake Center
Wed 08:39:38 PM 41.7872 -108.9850 260° West 422 486 38,000  Level Salt Lake Center
Wed 08:40:39 PM 41.7650 -109.1550 260° West 419 482 38,000  Level Salt Lake Center
Wed 08:41:41 PM 41.7467 -109.3022 261° West 421 484 38,000  Level Salt Lake Center
Wed 08:42:43 PM 41.7239 -109.4725 260° West 420 483 38,000  Level Salt Lake Center
Wed 08:43:44 PM 41.7042 -109.6161 260° West 415 478 38,000  Level Salt Lake Center
Wed 08:44:46 PM 41.6808 -109.7844 260° West 414 476 38,000  Level Salt Lake Center
Wed 08:45:47 PM 41.6619 -109.9297 260° West 415 478 38,000  Level Salt Lake Center
Wed 08:46:49 PM 41.6417 -110.0767 260° West 420 483 38,000  Level Salt Lake Center
Wed 08:47:51 PM 41.6169 -110.2458 259° West 418 481 38,000  Level Salt Lake Center
Wed 08:48:52 PM 41.5972 -110.3917 260° West 418 481 38,000  Level Salt Lake Center
Wed 08:49:54 PM 41.5733 -110.5622 259° West 419 482 38,000  Level Salt Lake Center
Wed 08:50:56 PM 41.5519 -110.7094 259° West 421 484 38,000  Level Salt Lake Center
Wed 08:51:57 PM 41.5264 -110.8814 259° West 422 486 38,000  Level Salt Lake Center
Wed 08:52:59 PM 41.5061 -111.0214 259° West 423 487 38,000  Level Salt Lake Center
Wed 08:58:28 PM 41.3780 -111.8730 259° West 418 481 38,000  Level FlightAware ADS-B
Wed 08:59:13 PM 41.3620 -111.9760 258° West 418 481 38,000  Level FlightAware ADS-B
Wed 08:59:53 PM 41.3470 -112.0810 259° West 410 472 38,000  Level FlightAware ADS-B
Wed 09:00:38 PM 41.3280 -112.2000 258° West 409 471 38,000  Level FlightAware ADS-B
Wed 09:01:23 PM 41.3100 -112.3080 258° West 409 471 38,000  Level FlightAware ADS-B
Wed 09:02:03 PM 41.2940 -112.4080 258° West 408 470 38,000  Level FlightAware ADS-B
Wed 09:02:43 PM 41.2790 -112.5040 258° West 408 470 38,000  Level FlightAware ADS-B
Wed 09:03:28 PM 41.2610 -112.6150 258° West 410 472 38,000  Level FlightAware ADS-B
Wed 09:04:08 PM 41.2450 -112.7150 258° West 411 473 38,000  Level FlightAware ADS-B
Wed 09:04:48 PM 41.2300 -112.8090 258° West 410 472 38,000  Level FlightAware ADS-B
Wed 09:05:33 PM 41.2120 -112.9070 256° West 410 472 38,000  Level FlightAware ADS-B
Wed 09:06:13 PM 41.1980 -112.9910 258° West 410 472 38,000  Level FlightAware ADS-B
Wed 09:06:53 PM 41.1830 -113.0740 257° West 410 472 38,000  Level FlightAware ADS-B
Wed 09:07:33 PM 41.1690 -113.1580 258° West 410 472 38,000  Level FlightAware ADS-B
Wed 09:08:23 PM 41.1510 -113.2620 257° West 410 472 38,000  Level FlightAware ADS-B
Wed 09:09:03 PM 41.1360 -113.3450 257° West 410 472 38,000  Level FlightAware ADS-B
Wed 09:09:43 PM 41.1220 -113.4290 258° West 410 472 38,000  Level FlightAware ADS-B
Wed 09:10:23 PM 41.1070 -113.5120 257° West 410 472 38,000  Level FlightAware ADS-B
Wed 09:11:03 PM 41.0930 -113.5960 258° West 410 472 38,000  Level FlightAware ADS-B
Wed 09:11:53 PM 41.0750 -113.7000 257° West 410 472 38,000  Level FlightAware ADS-B
Wed 09:12:33 PM 41.0600 -113.7830 257° West 410 472 38,000  Level FlightAware ADS-B
Wed 09:13:13 PM 41.0450 -113.8660 257° West 410 472 38,000  Level FlightAware ADS-B
Wed 09:13:53 PM 41.0310 -113.9500 258° West 410 472 38,000  Level FlightAware ADS-B
Wed 09:14:33 PM 41.0160 -114.0330 257° West 410 472 38,000  Level FlightAware ADS-B
Wed 09:15:32 PM 40.9669 -114.3475 257° West 401 461 38,000  Level Salt Lake Center
Wed 09:16:33 PM 40.9356 -114.5133 256° West 402 463 38,000  Level Salt Lake Center
Wed 09:17:34 PM 40.9119 -114.6503 257° West 400 460 38,000  Level Salt Lake Center
Wed 09:18:36 PM 40.8875 -114.7858 257° West 397 457 38,000  Level Salt Lake Center
Wed 09:19:37 PM 40.8556 -114.9428 255° West 396 456 38,000  Level Salt Lake Center
Wed 09:20:38 PM 40.8325 -115.0750 257° West 390 449 38,000  Level Salt Lake Center
Wed 09:21:40 PM 40.8072 -115.2083 256° West 391 450 38,000  Level Salt Lake Center
Wed 09:22:41 PM 40.7786 -115.3622 256° West 386 444 38,000  Level Salt Lake Center
Wed 09:23:42 PM 40.7536 -115.4958 256° West 391 450 38,000  Level Salt Lake Center
Wed 09:24:43 PM 40.7228 -115.6531 256° West 396 456 38,000  Level Salt Lake Center
Wed 09:25:45 PM 40.6972 -115.7869 256° West 395 455 38,000  Level Salt Lake Center
Wed 09:26:46 PM 40.6728 -115.9217 257° West 394 453 38,000  Level Salt Lake Center
Wed 09:27:47 PM 40.6433 -116.0764 256° West 392 451 38,000  Level Salt Lake Center
Wed 09:28:49 PM 40.6167 -116.2100 255° West 394 453 38,000  Level Salt Lake Center
Wed 09:29:50 PM 40.5861 -116.3656 256° West 394 453 38,000  Level Salt Lake Center
Wed 09:30:51 PM 40.5600 -116.4975 255° West 390 449 38,000  Level Salt Lake Center
Wed 09:31:53 PM 40.5347 -116.6289 256° West 391 450 38,000  Level Salt Lake Center
Wed 09:32:54 PM 40.5042 -116.7808 255° West 389 448 38,000 -295 Level Salt Lake Center
Wed 09:33:55 PM 40.4786 -116.9089 255° West 390 449 37,400 -787 Descending Salt Lake Center
Wed 09:34:56 PM 40.4475 -117.0603 255° West 393 452 36,400 -683 Descending Salt Lake Center
Wed 09:35:58 PM 40.4200 -117.1925 255° West 394 453 36,000 -195 Descending Salt Lake Center
Wed 09:36:59 PM 40.3878 -117.3475 255° West 395 455 36,000  Level Salt Lake Center
Wed 09:38:00 PM 40.3600 -117.4792 255° West 393 452 36,000  Level Salt Lake Center
Wed 09:39:01 PM 40.3278 -117.6333 255° West 394 453 36,000  Level Salt Lake Center
Wed 09:40:03 PM 40.2994 -117.7672 255° West 398 458 36,000  Level Salt Lake Center
Wed 09:41:04 PM 40.2717 -117.9011 255° West 397 457 36,000  Level Salt Lake Center
Wed 09:41:35 PM 40.2536 -117.9897 255° West 397 457 36,000 -652 Level Oakland Center
Wed 09:42:36 PM 40.2247 -118.1217 254° West 394 453 35,000 -2,311 Descending Oakland Center
Wed 09:43:37 PM 40.1933 -118.2658 254° West 412 474 31,300 -2,951 Descending Oakland Center
Wed 09:44:38 PM 40.1619 -118.4094 254° West 413 475 29,000 -2,293 Descending Oakland Center
Wed 09:45:40 PM 40.1331 -118.5481 255° West 401 461 26,600 -2,390 Descending Oakland Center
Wed 09:46:41 PM 40.1058 -118.6817 255° West 388 447 24,100 -2,705 Descending Oakland Center
Wed 09:47:42 PM 40.0753 -118.8436 256° West 385 443 21,100 -2,607 Descending Oakland Center
Wed 09:48:43 PM 40.0494 -118.9717 255° West 371 427 18,800 -2,016 Descending Oakland Center
Wed 09:49:44 PM 40.0236 -119.0989 255° West 366 421 17,000 -1,366 Descending Oakland Center
Wed 09:50:46 PM 40.0003 -119.2156 255° West 340 391 16,000 -1,756 Descending Oakland Center
Wed 09:51:47 PM 39.9636 -119.3217 246° West 325 374 13,400 -2,115 Descending Oakland Center
Wed 09:52:48 PM 39.9242 -119.4283 244° Southwest 327 376 11,700 -857 Descending Oakland Center
Wed 09:58:33 PM 39.6790 -119.7660 244° Southwest 210 242 7,600 -764 Descending FlightAware ADS-B
Wed 09:59:13 PM 39.6430 -119.7650 179° South 190 219 6,800 -943 Descending FlightAware ADS-B
Wed 09:59:43 PM 39.6190 -119.7660 182° South 156 180 6,500 -600 Descending FlightAware ADS-B
Wed 09:59:53 PM 39.6150 -119.7660 180° South 152 175 6,400 -960 Descending FlightAware ADS-B
Wed 10:00:33 PM 39.5860 -119.7660 180° South 146 168 5,700 -923 Descending FlightAware ADS-B
Wed 10:00:58 PM 39.5700 -119.7660 180° South 144 166 5,400 -655 Descending FlightAware ADS-B
Wed 10:01:28 PM 39.5520 -119.7670 182° South 148 170 5,100 -429 Descending FlightAware ADS-B
Wed 10:02:08 PM 39.5230 -119.7660 178° South 153 176 4,900 -300 Descending FlightAware ADS-B

Login

Don't have an account? Register now (free) for customized features, flight alerts, and more!